Time;durP1;ratioP1;P1;durP2;ratioP2;P2;SDS_P1;SDS_P2;PMS_P1;PMS_P2;Temp;Humidity;BMP_temperature;BMP_pressure;BME280_temperature;BME280_humidity;BME280_pressure;Samples;Min_cycle;Max_cycle;Signal;HPM_P1;HPM_P2
2021/04/26 00:01:19;;;;;;;3.30;2.13;;;;;;;;;;5114552;28;20276;-41
2021/04/26 00:03:44;;;;;;;3.13;2.10;;;;;;;;;;5082948;28;20206;-41
2021/04/26 00:06:11;;;;;;;4.55;2.92;;;;;;;;;;5114476;28;20431;-41
2021/04/26 00:08:37;;;;;;;4.18;2.53;;;;;;;;;;5115308;28;20449;-41
2021/04/26 00:11:03;;;;;;;3.45;2.33;;;;;;;;;;5115180;28;20181;-41
2021/04/26 00:13:29;;;;;;;5.45;2.45;;;;;;;;;;5115270;28;20230;-41
2021/04/26 00:15:55;;;;;;;2.97;2.42;;;;;;;;;;5115191;28;20746;-41
2021/04/26 00:18:21;;;;;;;3.22;2.33;;;;;;;;;;5115377;28;20204;-41
2021/04/26 00:20:47;;;;;;;4.78;2.40;;;;;;;;;;5114930;28;20318;-41
2021/04/26 00:23:13;;;;;;;4.70;2.50;;;;;;;;;;5104880;28;20209;-41
2021/04/26 00:25:40;;;;;;;5.22;2.55;;;;;;;;;;5095181;28;20812;-41
2021/04/26 00:28:06;;;;;;;3.85;2.85;;;;;;;;;;5095275;28;20259;-41
2021/04/26 00:30:32;;;;;;;4.85;2.22;;;;;;;;;;5100903;28;20264;-41
2021/04/26 00:32:58;;;;;;;5.53;2.60;;;;;;;;;;5114505;28;20569;-41
2021/04/26 00:35:25;;;;;;;4.47;2.70;;;;;;;;;;5115351;28;20177;-41
2021/04/26 00:37:52;;;;;;;4.55;2.53;;;;;;;;;;5113988;28;20207;-41
2021/04/26 00:40:18;;;;;;;5.35;2.72;;;;;;;;;;5115148;28;20255;-41
2021/04/26 00:42:44;;;;;;;4.90;2.60;;;;;;;;;;5108842;28;20243;-41
2021/04/26 00:45:11;;;;;;;4.32;2.72;;;;;;;;;;5094803;28;20564;-41
2021/04/26 00:47:38;;;;;;;4.40;2.72;;;;;;;;;;5111319;28;20204;-41
2021/04/26 00:50:08;;;;;;;5.28;2.90;;;;;;;;;;5114544;28;20174;-41
2021/04/26 00:52:34;;;;;;;4.40;2.75;;;;;;;;;;5113620;28;20177;-41
2021/04/26 00:55:01;;;;;;;3.90;2.50;;;;;;;;;;5100927;28;20196;-41
2021/04/26 00:57:27;;;;;;;4.03;2.33;;;;;;;;;;5095281;28;20177;-41
2021/04/26 00:59:53;;;;;;;5.95;2.78;;;;;;;;;;5114715;28;20544;-41
2021/04/26 01:02:19;;;;;;;3.80;2.65;;;;;;;;;;5113870;28;20204;-41
2021/04/26 01:04:45;;;;;;;3.40;2.40;;;;;;;;;;5113867;28;20236;-41
2021/04/26 01:07:12;;;;;;;4.25;2.95;;;;;;;;;;5114776;28;20174;-41
2021/04/26 01:09:37;;;;;;;3.45;2.50;;;;;;;;;;5114768;28;20185;-41
2021/04/26 01:12:13;;;;;;;3.42;2.55;;;;;;;;;;5114137;28;20177;-41
2021/04/26 01:14:58;;;;;;;4.15;2.80;;;;;;;;;;5094693;28;20169;-41
2021/04/26 01:17:26;;;;;;;4.78;2.63;;;;;;;;;;5113666;28;20177;-41
2021/04/26 01:19:52;;;;;;;6.03;2.40;;;;;;;;;;5113781;28;20211;-41
2021/04/26 01:22:24;;;;;;;3.35;2.30;;;;;;;;;;5112239;28;20219;-41
2021/04/26 01:24:59;;;;;;;4.03;2.70;;;;;;;;;;5094496;28;20483;-41
2021/04/26 01:27:43;;;;;;;4.32;2.55;;;;;;;;;;5094566;28;20529;-41
2021/04/26 01:30:14;;;;;;;4.15;2.42;;;;;;;;;;5112002;28;20192;-41
2021/04/26 01:32:42;;;;;;;3.15;2.15;;;;;;;;;;5113822;28;20177;-41
2021/04/26 01:35:18;;;;;;;3.58;2.40;;;;;;;;;;5114568;28;20228;-41
2021/04/26 01:37:46;;;;;;;3.35;2.33;;;;;;;;;;5114492;28;20177;-41
2021/04/26 01:40:13;;;;;;;4.72;2.53;;;;;;;;;;5114550;28;20813;-41
2021/04/26 01:42:42;;;;;;;3.60;2.40;;;;;;;;;;5113793;28;20173;-41
2021/04/26 01:45:10;;;;;;;4.03;2.75;;;;;;;;;;5114716;28;20197;-41
2021/04/26 01:47:37;;;;;;;3.72;2.45;;;;;;;;;;5114406;28;20437;-41
2021/04/26 01:50:04;;;;;;;2.95;2.63;;;;;;;;;;5116629;28;20177;-41
2021/04/26 01:52:31;;;;;;;3.65;2.40;;;;;;;;;;5115334;28;20229;-41
2021/04/26 01:54:58;;;;;;;4.13;2.40;;;;;;;;;;5111884;28;20209;-41
2021/04/26 01:57:24;;;;;;;3.35;2.30;;;;;;;;;;5118476;28;20172;-41
2021/04/26 01:59:53;;;;;;;3.85;2.53;;;;;;;;;;5101764;28;20177;-41
2021/04/26 02:02:19;;;;;;;3.90;2.58;;;;;;;;;;5117420;28;20280;-41
2021/04/26 02:04:46;;;;;;;3.80;2.35;;;;;;;;;;5109059;28;20193;-41
2021/04/26 02:07:12;;;;;;;3.28;2.10;;;;;;;;;;5105118;28;20177;-41
2021/04/26 02:09:39;;;;;;;3.60;2.58;;;;;;;;;;5117727;28;20562;-41
2021/04/26 02:12:06;;;;;;;2.88;2.00;;;;;;;;;;5117583;28;20176;-41
2021/04/26 02:14:33;;;;;;;2.67;1.90;;;;;;;;;;5104268;28;20173;-41
2021/04/26 02:16:59;;;;;;;2.20;1.88;;;;;;;;;;5117926;28;20571;-41
2021/04/26 02:19:25;;;;;;;3.28;2.20;;;;;;;;;;5117713;28;20188;-41
2021/04/26 02:21:51;;;;;;;3.10;1.92;;;;;;;;;;5116873;28;20197;-41
2021/04/26 02:24:17;;;;;;;2.80;2.28;;;;;;;;;;5117842;28;20216;-41
2021/04/26 02:26:43;;;;;;;2.42;1.92;;;;;;;;;;5101536;28;20185;-41
2021/04/26 02:29:09;;;;;;;3.42;2.63;;;;;;;;;;5102536;28;20177;-41
2021/04/26 02:31:36;;;;;;;2.95;2.10;;;;;;;;;;5104686;28;20188;-41
2021/04/26 02:34:07;;;;;;;3.08;2.10;;;;;;;;;;5117718;28;20165;-41
2021/04/26 02:36:35;;;;;;;3.35;2.13;;;;;;;;;;5117312;28;20205;-41
2021/04/26 02:39:04;;;;;;;3.45;2.30;;;;;;;;;;5111613;28;20193;-41
2021/04/26 02:41:32;;;;;;;4.05;2.00;;;;;;;;;;5096759;28;20248;-41
2021/04/26 02:43:59;;;;;;;3.67;2.58;;;;;;;;;;5109993;28;20643;-41
2021/04/26 02:46:26;;;;;;;3.15;2.20;;;;;;;;;;5117300;28;20184;-41
2021/04/26 02:48:52;;;;;;;3.22;2.00;;;;;;;;;;5117441;28;20166;-41
2021/04/26 02:51:20;;;;;;;2.90;2.03;;;;;;;;;;5116653;28;20176;-41
2021/04/26 02:53:46;;;;;;;2.80;2.10;;;;;;;;;;5116717;28;20183;-41
2021/04/26 02:56:16;;;;;;;2.67;2.00;;;;;;;;;;5114825;28;20181;-41
2021/04/26 02:58:44;;;;;;;3.60;2.13;;;;;;;;;;5116709;28;20195;-41
2021/04/26 03:01:11;;;;;;;3.97;2.35;;;;;;;;;;5115776;28;20185;-41
2021/04/26 03:03:39;;;;;;;2.15;1.83;;;;;;;;;;5116924;28;20201;-41
2021/04/26 03:06:05;;;;;;;2.47;1.77;;;;;;;;;;5116621;28;20181;-41
2021/04/26 03:08:31;;;;;;;3.05;2.13;;;;;;;;;;5116606;28;20196;-41
2021/04/26 03:10:58;;;;;;;1.98;1.77;;;;;;;;;;5114832;28;20174;-41
2021/04/26 03:13:28;;;;;;;2.72;2.05;;;;;;;;;;5117064;28;20204;-41
2021/04/26 03:15:54;;;;;;;2.20;1.80;;;;;;;;;;5116807;28;20180;-41
2021/04/26 03:18:20;;;;;;;2.38;2.00;;;;;;;;;;5116565;28;20177;-41
2021/04/26 03:20:46;;;;;;;3.05;2.05;;;;;;;;;;5115899;28;20199;-41
2021/04/26 03:23:16;;;;;;;2.97;2.03;;;;;;;;;;5115416;28;20268;-41
2021/04/26 03:25:42;;;;;;;2.50;1.90;;;;;;;;;;5116842;28;20158;-41
2021/04/26 03:28:08;;;;;;;2.28;1.90;;;;;;;;;;5116634;28;20177;-41
2021/04/26 03:30:33;;;;;;;2.17;1.70;;;;;;;;;;5115816;28;20166;-41
2021/04/26 03:33:00;;;;;;;2.58;1.60;;;;;;;;;;5116440;28;20174;-41
2021/04/26 03:35:26;;;;;;;2.13;1.73;;;;;;;;;;5116133;28;20174;-41
2021/04/26 03:37:53;;;;;;;2.20;1.67;;;;;;;;;;5115937;28;20181;-41
2021/04/26 03:40:21;;;;;;;2.60;2.00;;;;;;;;;;5115705;28;20452;-41
2021/04/26 03:42:47;;;;;;;2.05;1.85;;;;;;;;;;5115814;28;20188;-41
2021/04/26 03:45:15;;;;;;;1.90;1.60;;;;;;;;;;5116120;28;20196;-41
2021/04/26 03:47:41;;;;;;;1.60;1.45;;;;;;;;;;5116273;28;20176;-41
2021/04/26 03:50:07;;;;;;;2.28;1.52;;;;;;;;;;5115934;28;20172;-41
2021/04/26 03:52:33;;;;;;;2.47;1.75;;;;;;;;;;5115148;28;20268;-41
2021/04/26 03:54:59;;;;;;;2.20;1.77;;;;;;;;;;5115656;28;20253;-41
2021/04/26 03:57:25;;;;;;;2.83;1.90;;;;;;;;;;5115661;28;20228;-41
2021/04/26 03:59:51;;;;;;;1.83;1.60;;;;;;;;;;5116066;28;20161;-41
2021/04/26 04:02:17;;;;;;;3.05;1.85;;;;;;;;;;5115335;28;20467;-41
2021/04/26 04:04:43;;;;;;;2.47;1.70;;;;;;;;;;5115496;28;20275;-41
2021/04/26 04:07:09;;;;;;;3.20;1.88;;;;;;;;;;5115021;28;20174;-41
2021/04/26 04:09:35;;;;;;;1.98;1.80;;;;;;;;;;5116071;28;20162;-41
2021/04/26 04:12:00;;;;;;;2.38;2.00;;;;;;;;;;5113592;28;20192;-41
2021/04/26 04:14:26;;;;;;;2.10;1.70;;;;;;;;;;5110997;28;20455;-41
2021/04/26 04:16:52;;;;;;;4.43;1.80;;;;;;;;;;5115603;28;20215;-41
2021/04/26 04:19:18;;;;;;;2.50;1.90;;;;;;;;;;5114685;28;20189;-41
2021/04/26 04:21:45;;;;;;;2.42;1.52;;;;;;;;;;5114466;28;20614;-41
2021/04/26 04:24:11;;;;;;;2.33;1.80;;;;;;;;;;5115586;28;20200;-41
2021/04/26 04:26:37;;;;;;;1.67;1.50;;;;;;;;;;5115694;28;20181;-41
2021/04/26 04:29:03;;;;;;;2.90;1.88;;;;;;;;;;5114620;28;20179;-42
2021/04/26 04:31:29;;;;;;;7.30;2.33;;;;;;;;;;5115109;28;20169;-42
2021/04/26 04:33:55;;;;;;;17.38;3.28;;;;;;;;;;5115466;28;20181;-42
2021/04/26 04:36:20;;;;;;;8.80;3.47;;;;;;;;;;5114679;28;20185;-42
2021/04/26 04:38:46;;;;;;;9.05;3.15;;;;;;;;;;5114255;28;20173;-42
2021/04/26 04:41:12;;;;;;;10.02;3.10;;;;;;;;;;5113617;28;20184;-42
2021/04/26 04:43:39;;;;;;;7.13;2.70;;;;;;;;;;5114067;28;20201;-42
2021/04/26 04:46:06;;;;;;;7.35;3.00;;;;;;;;;;5114431;28;20173;-42
2021/04/26 04:48:32;;;;;;;8.27;2.63;;;;;;;;;;5114906;28;20173;-42
2021/04/26 04:50:58;;;;;;;4.40;2.28;;;;;;;;;;5113904;28;20268;-42
2021/04/26 04:53:24;;;;;;;9.15;2.47;;;;;;;;;;5114717;28;20547;-42
2021/04/26 04:55:50;;;;;;;6.57;2.53;;;;;;;;;;5115033;28;20275;-42
2021/04/26 04:58:16;;;;;;;5.05;2.92;;;;;;;;;;5114594;28;20254;-42
2021/04/26 05:00:42;;;;;;;5.22;2.50;;;;;;;;;;5107945;28;20177;-42
2021/04/26 05:03:08;;;;;;;7.88;2.63;;;;;;;;;;5110356;28;20185;-42
2021/04/26 05:05:34;;;;;;;6.82;3.10;;;;;;;;;;5114496;28;20268;-42
2021/04/26 05:08:01;;;;;;;5.40;2.60;;;;;;;;;;5114486;28;20207;-42
2021/04/26 05:10:27;;;;;;;6.93;2.70;;;;;;;;;;5114113;28;20447;-42
2021/04/26 05:12:53;;;;;;;5.38;2.40;;;;;;;;;;5113359;28;20165;-42
2021/04/26 05:15:19;;;;;;;4.35;2.40;;;;;;;;;;5115017;28;20197;-42
2021/04/26 05:17:45;;;;;;;6.47;2.53;;;;;;;;;;5106948;28;20211;-42
2021/04/26 05:20:12;;;;;;;5.75;2.60;;;;;;;;;;5096112;28;20242;-42
2021/04/26 05:22:38;;;;;;;7.30;2.60;;;;;;;;;;5111029;28;20177;-42
2021/04/26 05:25:06;;;;;;;8.10;2.20;;;;;;;;;;5117234;28;20322;-42
2021/04/26 05:27:32;;;;;;;3.95;2.22;;;;;;;;;;5119076;28;20158;-42
2021/04/26 05:29:58;;;;;;;4.68;2.35;;;;;;;;;;5118523;28;20173;-42
2021/04/26 05:32:24;;;;;;;4.72;2.50;;;;;;;;;;5117296;28;20166;-42
2021/04/26 05:34:50;;;;;;;4.47;2.10;;;;;;;;;;5118366;28;20254;-42
2021/04/26 05:37:16;;;;;;;6.00;2.22;;;;;;;;;;5118240;28;20181;-42
2021/04/26 05:39:42;;;;;;;6.45;2.70;;;;;;;;;;5118515;28;20594;-42
2021/04/26 05:42:08;;;;;;;4.05;2.60;;;;;;;;;;5117947;28;20189;-42
2021/04/26 05:44:34;;;;;;;2.92;2.10;;;;;;;;;;5108524;28;20213;-42
2021/04/26 05:47:00;;;;;;;3.78;1.90;;;;;;;;;;5099804;28;20246;-42
2021/04/26 05:49:26;;;;;;;3.97;2.30;;;;;;;;;;5115830;28;20173;-42
2021/04/26 05:51:52;;;;;;;4.18;2.17;;;;;;;;;;5116975;28;20173;-42
2021/04/26 05:54:18;;;;;;;4.22;2.33;;;;;;;;;;5118660;28;20548;-42
2021/04/26 05:56:44;;;;;;;5.03;2.45;;;;;;;;;;5117040;28;20200;-42
2021/04/26 05:59:11;;;;;;;7.85;2.30;;;;;;;;;;5118411;28;20549;-42
2021/04/26 06:01:37;;;;;;;4.07;2.05;;;;;;;;;;5117054;28;20176;-42
2021/04/26 06:04:03;;;;;;;3.67;2.10;;;;;;;;;;5117799;28;20193;-42
2021/04/26 06:06:29;;;;;;;4.13;2.33;;;;;;;;;;5111485;28;20417;-42
2021/04/26 06:08:55;;;;;;;4.82;2.25;;;;;;;;;;5118050;28;20540;-42
2021/04/26 06:11:21;;;;;;;3.88;2.15;;;;;;;;;;5117703;28;20166;-42
2021/04/26 06:13:47;;;;;;;4.82;2.20;;;;;;;;;;5112944;28;20188;-42
2021/04/26 06:16:13;;;;;;;3.08;2.20;;;;;;;;;;5116988;28;20560;-42
2021/04/26 06:18:39;;;;;;;4.38;2.08;;;;;;;;;;5116812;28;20181;-42
2021/04/26 06:21:05;;;;;;;5.03;2.13;;;;;;;;;;5114586;28;20201;-42
2021/04/26 06:23:31;;;;;;;3.50;2.08;;;;;;;;;;5114438;28;20181;-42
2021/04/26 06:25:57;;;;;;;3.47;1.90;;;;;;;;;;5116831;28;20577;-42
2021/04/26 06:28:23;;;;;;;4.85;2.20;;;;;;;;;;5117012;28;20200;-42
2021/04/26 06:30:49;;;;;;;5.18;2.00;;;;;;;;;;5113807;28;20181;-42
2021/04/26 06:33:16;;;;;;;2.92;1.83;;;;;;;;;;5108455;28;20193;-42
2021/04/26 06:35:43;;;;;;;3.05;2.10;;;;;;;;;;5116212;28;20169;-42
2021/04/26 06:38:09;;;;;;;3.58;2.10;;;;;;;;;;5109703;28;20177;-42
2021/04/26 06:40:35;;;;;;;3.72;1.75;;;;;;;;;;5115300;28;20268;-42
2021/04/26 06:43:01;;;;;;;3.33;2.13;;;;;;;;;;5117416;28;20189;-42
2021/04/26 06:45:27;;;;;;;3.75;1.95;;;;;;;;;;5116146;28;20239;-42
2021/04/26 06:47:53;;;;;;;3.20;2.00;;;;;;;;;;5116418;28;20197;-42
2021/04/26 06:50:19;;;;;;;3.08;1.70;;;;;;;;;;5115053;28;20173;-42
2021/04/26 06:52:46;;;;;;;2.42;1.95;;;;;;;;;;5115389;28;20165;-42
2021/04/26 06:55:12;;;;;;;3.70;1.70;;;;;;;;;;5106720;28;20185;-42
2021/04/26 06:57:38;;;;;;;3.78;2.08;;;;;;;;;;5095470;28;20580;-42
2021/04/26 07:00:05;;;;;;;2.65;2.08;;;;;;;;;;5095020;28;20169;-42
2021/04/26 07:02:31;;;;;;;3.03;1.67;;;;;;;;;;5105005;28;20189;-42
2021/04/26 07:04:57;;;;;;;2.50;1.58;;;;;;;;;;5117165;28;20252;-42
2021/04/26 07:07:24;;;;;;;2.67;1.85;;;;;;;;;;5117189;28;20169;-42
2021/04/26 07:09:50;;;;;;;2.70;1.70;;;;;;;;;;5117008;28;20161;-42
2021/04/26 07:12:16;;;;;;;4.57;1.80;;;;;;;;;;5114605;28;20177;-42
2021/04/26 07:14:42;;;;;;;2.47;1.92;;;;;;;;;;5116836;28;20207;-42
2021/04/26 07:17:08;;;;;;;2.10;1.60;;;;;;;;;;5116896;28;20595;-42
2021/04/26 07:19:34;;;;;;;2.78;1.75;;;;;;;;;;5116010;28;20482;-42
2021/04/26 07:22:00;;;;;;;2.17;1.80;;;;;;;;;;5115571;28;20279;-42
2021/04/26 07:24:27;;;;;;;3.90;1.63;;;;;;;;;;5116367;28;20212;-42
2021/04/26 07:26:53;;;;;;;2.58;1.80;;;;;;;;;;5115227;28;20173;-42
2021/04/26 07:29:19;;;;;;;3.97;1.90;;;;;;;;;;5102077;28;20564;-42
2021/04/26 07:31:45;;;;;;;2.50;1.90;;;;;;;;;;5115998;28;20165;-42
2021/04/26 07:34:11;;;;;;;4.88;1.85;;;;;;;;;;5111743;28;20476;-42
2021/04/26 07:36:37;;;;;;;4.90;1.90;;;;;;;;;;5115215;28;20185;-43
2021/04/26 07:39:03;;;;;;;3.63;1.60;;;;;;;;;;5116069;28;20177;-42
2021/04/26 07:41:30;;;;;;;2.63;1.70;;;;;;;;;;5115653;28;20165;-42
2021/04/26 07:43:56;;;;;;;4.72;1.90;;;;;;;;;;5108045;28;20595;-42
2021/04/26 07:46:22;;;;;;;6.30;1.75;;;;;;;;;;5095784;28;20248;-42
2021/04/26 07:48:48;;;;;;;2.97;1.70;;;;;;;;;;5106621;28;20248;-42
2021/04/26 07:51:14;;;;;;;2.05;1.40;;;;;;;;;;5112521;28;20494;-42
2021/04/26 07:53:40;;;;;;;3.17;1.52;;;;;;;;;;5115933;28;20180;-42
2021/04/26 07:56:06;;;;;;;5.18;1.80;;;;;;;;;;5115690;28;20181;-42
2021/04/26 07:58:32;;;;;;;1.85;1.45;;;;;;;;;;5115763;28;20566;-42
2021/04/26 08:00:58;;;;;;;3.30;1.55;;;;;;;;;;5113120;28;20180;-42
2021/04/26 08:03:24;;;;;;;5.72;1.77;;;;;;;;;;5115621;28;20184;-42
2021/04/26 08:05:51;;;;;;;2.15;1.40;;;;;;;;;;5115675;28;20254;-42
2021/04/26 08:08:17;;;;;;;5.05;1.60;;;;;;;;;;5115855;28;20427;-42
2021/04/26 08:10:43;;;;;;;1.88;1.38;;;;;;;;;;5114937;28;20177;-42
2021/04/26 08:13:09;;;;;;;2.13;1.92;;;;;;;;;;5115197;28;20201;-42
2021/04/26 08:15:35;;;;;;;2.08;1.45;;;;;;;;;;5114103;28;20258;-42
2021/04/26 08:18:01;;;;;;;2.13;1.52;;;;;;;;;;5105517;28;20214;-42
2021/04/26 08:20:27;;;;;;;3.08;1.38;;;;;;;;;;5107673;28;20273;-42
2021/04/26 08:22:53;;;;;;;5.43;1.70;;;;;;;;;;5115326;28;20184;-42
2021/04/26 08:25:20;;;;;;;1.70;1.58;;;;;;;;;;5115231;28;20242;-42
2021/04/26 08:27:47;;;;;;;3.92;1.90;;;;;;;;;;5114994;28;20238;-42
2021/04/26 08:30:13;;;;;;;2.45;1.88;;;;;;;;;;5115705;28;20257;-42
2021/04/26 08:32:39;;;;;;;3.72;2.40;;;;;;;;;;5113402;28;20208;-42
2021/04/26 08:35:05;;;;;;;3.03;1.90;;;;;;;;;;5104458;28;20181;-42
2021/04/26 08:37:32;;;;;;;1.90;1.55;;;;;;;;;;5115481;28;20169;-42
2021/04/26 08:39:58;;;;;;;2.88;1.90;;;;;;;;;;5114659;28;20192;-42
2021/04/26 08:42:24;;;;;;;3.67;1.70;;;;;;;;;;5114518;28;20293;-42
2021/04/26 08:44:50;;;;;;;3.47;1.70;;;;;;;;;;5113366;28;20208;-42
2021/04/26 08:47:19;;;;;;;2.25;1.90;;;;;;;;;;5115368;28;20540;-42
2021/04/26 08:49:45;;;;;;;2.67;1.50;;;;;;;;;;5083236;28;20447;-42
2021/04/26 08:52:11;;;;;;;2.85;1.83;;;;;;;;;;5114573;28;20173;-42
2021/04/26 08:54:37;;;;;;;1.85;1.75;;;;;;;;;;5115123;28;20552;-42
2021/04/26 08:57:04;;;;;;;1.83;1.50;;;;;;;;;;5114508;28;20184;-42
2021/04/26 08:59:30;;;;;;;2.08;1.60;;;;;;;;;;5114444;28;20627;-42
2021/04/26 09:02:03;;;;;;;1.63;1.52;;;;;;;;;;5101565;28;20277;-42
2021/04/26 09:04:29;;;;;;;3.47;1.67;;;;;;;;;;5113355;28;20188;-42
2021/04/26 09:07:00;;;;;;;2.35;1.60;;;;;;;;;;5114847;28;20180;-42
2021/04/26 09:09:32;;;;;;;2.78;1.50;;;;;;;;;;5114864;28;20440;-42
2021/04/26 09:11:58;;;;;;;2.47;1.60;;;;;;;;;;5114007;28;20754;-42
2021/04/26 09:14:34;;;;;;;5.53;1.50;;;;;;;;;;5114874;28;20552;-42
2021/04/26 09:17:20;;;;;;;1.90;1.48;;;;;;;;;;5114823;28;20191;-42
2021/04/26 09:19:46;;;;;;;3.55;1.30;;;;;;;;;;5112602;28;20180;-42
2021/04/26 09:22:13;;;;;;;3.03;1.48;;;;;;;;;;5102956;28;20177;-42
2021/04/26 09:24:39;;;;;;;1.77;1.17;;;;;;;;;;5114186;28;20234;-42
2021/04/26 09:27:14;;;;;;;2.13;1.50;;;;;;;;;;5113808;28;20181;-42
2021/04/26 09:29:40;;;;;;;2.08;1.67;;;;;;;;;;5115024;28;20595;-42
2021/04/26 09:32:14;;;;;;;2.05;1.30;;;;;;;;;;5114013;28;20176;-42
2021/04/26 09:34:40;;;;;;;2.25;1.20;;;;;;;;;;5114668;28;20181;-43
2021/04/26 09:37:09;;;;;;;2.25;1.30;;;;;;;;;;5106181;28;20231;-42
2021/04/26 09:39:36;;;;;;;1.55;1.10;;;;;;;;;;5111033;28;20464;-42
2021/04/26 09:42:02;;;;;;;4.43;1.40;;;;;;;;;;5113331;28;20185;-42
2021/04/26 09:44:28;;;;;;;5.20;1.48;;;;;;;;;;5114315;28;20284;-41
2021/04/26 09:46:54;;;;;;;8.05;1.65;;;;;;;;;;5114654;28;20242;-42
2021/04/26 09:49:21;;;;;;;3.88;1.55;;;;;;;;;;5114675;28;20177;-42
2021/04/26 09:51:49;;;;;;;13.85;1.85;;;;;;;;;;5113795;28;20181;-42
2021/04/26 09:54:15;;;;;;;4.18;1.90;;;;;;;;;;5109197;28;20177;-42
2021/04/26 09:56:47;;;;;;;2.50;1.50;;;;;;;;;;5114296;28;20500;-42
2021/04/26 09:59:14;;;;;;;4.38;1.63;;;;;;;;;;5114184;28;20196;-42
2021/04/26 10:01:41;;;;;;;2.58;1.60;;;;;;;;;;5114045;28;20170;-42
2021/04/26 10:04:08;;;;;;;4.65;1.63;;;;;;;;;;5114243;28;20197;-42
2021/04/26 10:06:34;;;;;;;5.43;1.95;;;;;;;;;;5114565;28;20464;-42
2021/04/26 10:09:01;;;;;;;4.85;1.80;;;;;;;;;;5110757;28;20226;-42
2021/04/26 10:11:29;;;;;;;4.60;1.80;;;;;;;;;;5116471;28;20547;-42
2021/04/26 10:14:08;;;;;;;3.03;1.83;;;;;;;;;;5117854;28;20280;-42
2021/04/26 10:16:43;;;;;;;4.50;1.58;;;;;;;;;;5118213;28;20173;-42
2021/04/26 10:19:16;;;;;;;4.70;1.52;;;;;;;;;;5098641;28;20180;-42
2021/04/26 10:21:52;;;;;;;3.83;1.60;;;;;;;;;;5110456;28;20292;-42
2021/04/26 10:24:19;;;;;;;2.90;1.75;;;;;;;;;;5115946;28;20196;-42
2021/04/26 10:26:48;;;;;;;2.47;1.35;;;;;;;;;;5113132;28;20823;-42
2021/04/26 10:29:25;;;;;;;3.60;2.05;;;;;;;;;;5117496;28;20229;-42
2021/04/26 10:32:00;;;;;;;3.80;1.73;;;;;;;;;;5116435;28;20173;-42
2021/04/26 10:34:29;;;;;;;4.32;1.50;;;;;;;;;;5105849;28;20177;-42
2021/04/26 10:36:57;;;;;;;2.33;1.52;;;;;;;;;;5116869;28;20606;-42
2021/04/26 10:39:25;;;;;;;3.28;1.50;;;;;;;;;;5117766;28;20204;-42
2021/04/26 10:41:56;;;;;;;2.70;1.58;;;;;;;;;;5115231;28;20181;-42
2021/04/26 10:44:41;;;;;;;2.45;1.83;;;;;;;;;;5113717;28;20211;-42
2021/04/26 10:47:25;;;;;;;1.70;1.30;;;;;;;;;;5115175;28;20257;-42
2021/04/26 10:49:53;;;;;;;2.20;1.50;;;;;;;;;;5109851;28;20250;-42
2021/04/26 10:52:45;;;;;;;5.50;1.70;;;;;;;;;;5116436;28;20177;-42
2021/04/26 10:55:23;;;;;;;4.75;1.60;;;;;;;;;;5113503;28;20185;-42
2021/04/26 10:57:50;;;;;;;1.65;1.40;;;;;;;;;;5106455;28;20185;-42
2021/04/26 11:00:29;;;;;;;3.70;1.80;;;;;;;;;;5116319;28;20179;-42
2021/04/26 11:03:11;;;;;;;4.00;1.75;;;;;;;;;;5117307;28;20782;-42
2021/04/26 11:05:40;;;;;;;2.15;1.50;;;;;;;;;;5116914;28;20312;-42
2021/04/26 11:10:35;;;;;;;2.05;1.42;;;;;;;;;;5115988;28;20185;-42
2021/04/26 11:13:03;;;;;;;2.85;1.50;;;;;;;;;;5112211;28;20170;-42
2021/04/26 11:15:29;;;;;;;3.97;1.42;;;;;;;;;;5108488;28;20272;-42
2021/04/26 11:17:56;;;;;;;4.40;1.98;;;;;;;;;;5116927;28;20169;-42
2021/04/26 11:20:23;;;;;;;4.22;2.00;;;;;;;;;;5116269;28;20550;-42
2021/04/26 11:22:53;;;;;;;3.38;1.98;;;;;;;;;;5115174;28;20271;-42
2021/04/26 11:25:36;;;;;;;4.45;2.45;;;;;;;;;;5096325;28;20293;-42
2021/04/26 11:28:03;;;;;;;4.30;2.20;;;;;;;;;;5114956;28;20260;-42
2021/04/26 11:30:34;;;;;;;4.68;2.53;;;;;;;;;;5102907;28;20181;-42
2021/04/26 11:33:04;;;;;;;5.43;2.92;;;;;;;;;;5105790;28;20208;-42
2021/04/26 11:35:31;;;;;;;3.25;2.22;;;;;;;;;;5116695;28;20244;-41
2021/04/26 11:37:58;;;;;;;3.55;2.05;;;;;;;;;;5116565;28;20181;-42
2021/04/26 11:40:28;;;;;;;5.30;2.55;;;;;;;;;;5116715;28;20177;-42
2021/04/26 11:43:04;;;;;;;4.25;2.00;;;;;;;;;;5115642;28;20504;-42
2021/04/26 11:45:30;;;;;;;3.85;2.20;;;;;;;;;;5114744;28;20583;-42
2021/04/26 11:47:56;;;;;;;7.82;2.17;;;;;;;;;;5101890;28;20257;-42
2021/04/26 11:50:22;;;;;;;2.97;2.05;;;;;;;;;;5112109;28;20465;-42
2021/04/26 11:52:48;;;;;;;3.10;2.08;;;;;;;;;;5115477;28;20193;-42
2021/04/26 11:55:17;;;;;;;4.50;2.05;;;;;;;;;;5115664;28;20181;-42
2021/04/26 11:57:44;;;;;;;4.43;2.40;;;;;;;;;;5116085;28;20178;-42
2021/04/26 12:00:23;;;;;;;2.97;2.22;;;;;;;;;;5115971;28;20263;-42
2021/04/26 12:02:49;;;;;;;2.50;1.90;;;;;;;;;;5110465;28;20208;-42
2021/04/26 12:05:23;;;;;;;3.95;1.88;;;;;;;;;;5109206;28;20201;-42
2021/04/26 12:07:51;;;;;;;3.20;1.95;;;;;;;;;;5111816;28;20553;-42
2021/04/26 12:10:25;;;;;;;2.55;1.90;;;;;;;;;;5115184;28;20252;-42
2021/04/26 12:12:55;;;;;;;5.45;1.88;;;;;;;;;;5111531;28;20248;-42
2021/04/26 12:15:23;;;;;;;2.47;1.80;;;;;;;;;;5115640;28;20574;-42
2021/04/26 12:17:49;;;;;;;2.55;1.73;;;;;;;;;;5111203;28;20203;-42
2021/04/26 12:20:17;;;;;;;2.70;1.80;;;;;;;;;;5115259;28;20216;-42
2021/04/26 12:22:44;;;;;;;3.03;1.95;;;;;;;;;;5115088;28;20180;-42
2021/04/26 12:25:11;;;;;;;2.90;1.95;;;;;;;;;;5111421;28;20247;-42
2021/04/26 12:27:37;;;;;;;2.25;1.70;;;;;;;;;;5115196;28;20222;-42
2021/04/26 12:30:20;;;;;;;3.72;2.00;;;;;;;;;;5096538;28;20181;-42
2021/04/26 12:32:46;;;;;;;2.60;1.40;;;;;;;;;;5102274;28;20176;-42
2021/04/26 12:35:14;;;;;;;5.18;1.73;;;;;;;;;;5101922;28;20200;-42
2021/04/26 12:37:41;;;;;;;4.10;1.60;;;;;;;;;;5114684;28;20192;-42
2021/04/26 12:40:13;;;;;;;3.08;1.77;;;;;;;;;;5115134;28;20416;-42
2021/04/26 12:42:40;;;;;;;2.40;1.60;;;;;;;;;;5096043;28;20199;-42
2021/04/26 12:45:13;;;;;;;3.42;1.50;;;;;;;;;;5115178;28;20193;-42
2021/04/26 12:47:49;;;;;;;1.95;1.40;;;;;;;;;;5115136;28;20201;-42
2021/04/26 12:50:16;;;;;;;2.55;1.48;;;;;;;;;;5113310;28;20642;-42
2021/04/26 12:52:43;;;;;;;2.65;1.48;;;;;;;;;;5113308;28;20178;-42
2021/04/26 12:55:12;;;;;;;2.53;1.30;;;;;;;;;;5113301;28;20189;-42
2021/04/26 12:57:38;;;;;;;6.15;2.25;;;;;;;;;;5114116;28;20176;-42
2021/04/26 13:00:08;;;;;;;17.42;5.88;;;;;;;;;;5114716;28;20187;-42
2021/04/26 13:02:34;;;;;;;31.15;6.72;;;;;;;;;;5114280;28;20234;-42
2021/04/26 13:05:00;;;;;;;34.42;7.80;;;;;;;;;;5114803;28;20208;-42
2021/04/26 13:07:27;;;;;;;41.63;11.15;;;;;;;;;;5106846;28;20429;-42
2021/04/26 13:10:04;;;;;;;62.70;14.88;;;;;;;;;;5104556;28;20188;-42
2021/04/26 13:12:30;;;;;;;77.15;18.30;;;;;;;;;;5114237;28;20619;-42
2021/04/26 13:14:57;;;;;;;73.22;19.67;;;;;;;;;;5114818;28;20259;-42
2021/04/26 13:17:33;;;;;;;78.82;20.48;;;;;;;;;;5114999;28;20636;-42
2021/04/26 13:20:17;;;;;;;74.47;19.80;;;;;;;;;;5114811;28;20461;-42
2021/04/26 13:22:43;;;;;;;80.20;19.83;;;;;;;;;;5112208;28;20615;-42
2021/04/26 13:25:09;;;;;;;81.72;21.40;;;;;;;;;;5112797;28;20209;-42
2021/04/26 13:27:45;;;;;;;76.82;21.27;;;;;;;;;;5114381;28;20183;-42
2021/04/26 13:30:12;;;;;;;73.32;19.73;;;;;;;;;;5114849;28;20172;-42
2021/04/26 13:32:39;;;;;;;80.57;19.02;;;;;;;;;;5114334;28;20225;-42
2021/04/26 13:35:06;;;;;;;80.80;19.98;;;;;;;;;;5114892;28;20762;-42
2021/04/26 13:37:32;;;;;;;60.53;18.35;;;;;;;;;;5114654;28;20185;-42
2021/04/26 13:39:58;;;;;;;69.95;18.52;;;;;;;;;;5109931;28;20181;-42
2021/04/26 13:42:24;;;;;;;66.78;17.65;;;;;;;;;;5113864;28;20181;-42
2021/04/26 13:44:50;;;;;;;53.25;17.58;;;;;;;;;;5114957;28;20564;-42
2021/04/26 13:47:16;;;;;;;57.28;16.42;;;;;;;;;;5118769;28;20260;-42
2021/04/26 13:49:42;;;;;;;50.22;16.17;;;;;;;;;;5118743;28;20256;-42
2021/04/26 13:52:08;;;;;;;51.67;15.35;;;;;;;;;;5118058;28;20260;-42
2021/04/26 13:54:34;;;;;;;51.10;15.85;;;;;;;;;;5117534;28;20173;-42
2021/04/26 13:57:00;;;;;;;41.08;13.25;;;;;;;;;;5110850;28;20181;-42
2021/04/26 13:59:26;;;;;;;45.78;13.68;;;;;;;;;;5105015;28;20468;-42
2021/04/26 14:01:52;;;;;;;44.63;14.60;;;;;;;;;;5112327;28;20189;-42
2021/04/26 14:04:18;;;;;;;37.65;13.40;;;;;;;;;;5118226;28;20279;-42
2021/04/26 14:06:44;;;;;;;45.08;13.20;;;;;;;;;;5118005;28;20657;-42
2021/04/26 14:09:10;;;;;;;41.22;12.98;;;;;;;;;;5117275;28;20169;-42
2021/04/26 14:11:37;;;;;;;38.72;12.43;;;;;;;;;;5114983;28;20209;-42
2021/04/26 14:14:03;;;;;;;37.30;12.02;;;;;;;;;;5107912;28;20193;-42
2021/04/26 14:16:29;;;;;;;40.53;12.57;;;;;;;;;;5097828;28;20174;-42
2021/04/26 14:18:55;;;;;;;39.78;11.93;;;;;;;;;;5117967;28;20205;-42
2021/04/26 14:21:21;;;;;;;34.65;12.48;;;;;;;;;;5117504;28;20189;-42
2021/04/26 14:23:47;;;;;;;35.13;11.23;;;;;;;;;;5117639;28;20508;-42
2021/04/26 14:26:13;;;;;;;31.17;11.55;;;;;;;;;;5117914;28;20173;-42
2021/04/26 14:28:39;;;;;;;30.75;11.00;;;;;;;;;;5112021;28;20182;-42
2021/04/26 14:31:05;;;;;;;29.38;10.52;;;;;;;;;;5117369;28;20165;-42
2021/04/26 14:33:31;;;;;;;28.15;9.80;;;;;;;;;;5117669;28;20173;-42
2021/04/26 14:35:57;;;;;;;28.00;9.93;;;;;;;;;;5117612;28;20448;-42
2021/04/26 14:38:23;;;;;;;25.83;9.27;;;;;;;;;;5117464;28;20173;-42
2021/04/26 14:40:49;;;;;;;22.38;9.13;;;;;;;;;;5099358;28;20223;-43
2021/04/26 14:43:15;;;;;;;24.48;9.45;;;;;;;;;;5117034;28;20743;-42
2021/04/26 14:45:41;;;;;;;23.85;9.60;;;;;;;;;;5115963;28;20591;-42